createdAt,value
2022-10-18T00:00:14.048Z,11.13
2022-10-18T00:02:41.552Z,8.17
2022-10-18T00:05:09.426Z,7.50
2022-10-18T00:07:36.852Z,13.00
2022-10-18T00:10:06.248Z,10.37
2022-10-18T00:12:34.193Z,8.63
2022-10-18T00:15:01.617Z,8.53
2022-10-18T00:17:29.380Z,6.93
2022-10-18T00:19:56.969Z,7.90
2022-10-18T00:22:25.325Z,8.00
2022-10-18T00:24:52.771Z,10.63
2022-10-18T00:27:21.515Z,9.77
2022-10-18T00:29:48.953Z,7.50
2022-10-18T00:32:16.379Z,8.07
2022-10-18T00:34:43.747Z,6.27
2022-10-18T00:37:11.185Z,7.00
2022-10-18T00:39:38.651Z,9.63
2022-10-18T00:42:06.173Z,7.17
2022-10-18T00:44:52.015Z,6.33
2022-10-18T00:47:20.865Z,7.67
2022-10-18T00:49:50.100Z,7.20
2022-10-18T00:52:19.134Z,6.77
2022-10-18T00:54:48.040Z,7.60
2022-10-18T00:57:15.821Z,10.23
2022-10-18T00:59:43.843Z,13.23
2022-10-18T01:02:11.791Z,8.17
2022-10-18T01:04:40.567Z,12.33
2022-10-18T01:07:11.485Z,10.70
2022-10-18T01:09:40.762Z,7.77
2022-10-18T01:12:14.352Z,8.27
2022-10-18T01:14:46.147Z,10.07
2022-10-18T01:17:18.075Z,7.63
2022-10-18T01:20:09.606Z,10.53
2022-10-18T01:22:40.203Z,9.43
2022-10-18T01:25:11.544Z,8.73
2022-10-18T01:27:48.271Z,7.80
2022-10-18T01:30:24.315Z,10.03
2022-10-18T01:32:54.815Z,8.70
2022-10-18T01:35:24.006Z,6.53
2022-10-18T01:37:51.894Z,9.57
2022-10-18T01:40:20.616Z,6.17
2022-10-18T01:42:49.288Z,7.53
2022-10-18T01:45:17.772Z,8.50
2022-10-18T01:47:47.625Z,7.70
2022-10-18T01:50:15.065Z,7.20
2022-10-18T01:52:48.840Z,7.90
2022-10-18T01:55:16.663Z,8.20
2022-10-18T01:57:48.086Z,10.27
2022-10-18T02:00:17.720Z,10.03
2022-10-18T02:02:48.604Z,6.03
2022-10-18T02:05:21.062Z,6.90
2022-10-18T02:08:00.133Z,10.13
2022-10-18T02:10:40.984Z,6.80
2022-10-18T02:13:09.365Z,9.13
2022-10-18T02:15:39.050Z,8.13
2022-10-18T02:18:09.686Z,11.27
2022-10-18T02:20:37.509Z,8.07
2022-10-18T02:23:05.683Z,9.87
2022-10-18T02:25:34.235Z,10.13
2022-10-18T02:28:02.076Z,7.00
2022-10-18T02:30:31.970Z,9.00
2022-10-18T02:33:02.241Z,15.30
2022-10-18T02:35:33.569Z,9.87
2022-10-18T02:38:01.092Z,9.80
2022-10-18T02:40:28.530Z,7.13
2022-10-18T02:42:56.975Z,8.77
2022-10-18T02:45:25.205Z,8.90
2022-10-18T02:47:52.646Z,8.53
2022-10-18T02:50:20.111Z,7.40
2022-10-18T02:52:48.858Z,9.53
2022-10-18T02:55:16.472Z,9.83
2022-10-18T02:57:43.843Z,6.67
2022-10-18T03:00:11.843Z,9.27
2022-10-18T03:02:39.272Z,11.77
2022-10-18T03:05:06.840Z,10.37
2022-10-18T03:07:34.707Z,12.43
2022-10-18T03:10:07.383Z,9.47
2022-10-18T03:12:34.847Z,11.67
2022-10-18T03:15:02.208Z,10.90
2022-10-18T03:17:29.951Z,7.13
2022-10-18T03:19:57.539Z,10.00
2022-10-18T03:22:25.495Z,7.97
2022-10-18T03:24:53.902Z,8.30
2022-10-18T03:27:22.895Z,7.67
2022-10-18T03:29:51.619Z,8.40
2022-10-18T03:32:19.895Z,9.07
2022-10-18T03:34:47.282Z,6.57
2022-10-18T03:37:14.662Z,7.57
2022-10-18T03:39:42.068Z,8.67
2022-10-18T03:42:09.503Z,8.57
2022-10-18T03:44:38.235Z,7.83
2022-10-18T03:47:05.703Z,12.57
2022-10-18T03:52:05.413Z,9.13
2022-10-18T03:54:32.784Z,11.50
2022-10-18T03:57:00.269Z,7.37
2022-10-18T03:59:27.639Z,9.03
2022-10-18T04:01:56.562Z,11.60
2022-10-18T04:04:24.090Z,8.03
2022-10-18T04:06:51.462Z,13.90
2022-10-18T04:09:18.892Z,12.83
2022-10-18T04:11:46.256Z,10.90
2022-10-18T04:14:13.635Z,10.20
2022-10-18T04:16:41.004Z,8.93
2022-10-18T04:19:09.753Z,11.47
2022-10-18T04:21:37.139Z,10.40
2022-10-18T04:24:04.720Z,8.70
2022-10-18T04:26:32.106Z,8.13
2022-10-18T04:28:59.552Z,7.63
2022-10-18T04:31:26.987Z,9.77
2022-10-18T04:33:54.587Z,11.87
2022-10-18T04:36:23.303Z,12.07
2022-10-18T04:38:50.643Z,8.30
2022-10-18T04:41:18.083Z,10.20
2022-10-18T04:46:17.818Z,11.03
2022-10-18T04:48:45.262Z,7.10
2022-10-18T04:51:12.750Z,10.77
2022-10-18T04:53:41.478Z,6.47
2022-10-18T04:56:09.392Z,10.17
2022-10-18T04:58:36.751Z,7.90
2022-10-18T05:01:05.616Z,7.60
2022-10-18T05:03:33.182Z,10.07
2022-10-18T05:06:02.846Z,10.60
2022-10-18T05:08:31.322Z,9.40
2022-10-18T05:11:00.387Z,13.07
2022-10-18T05:13:28.250Z,12.43
2022-10-18T05:15:55.911Z,9.43
2022-10-18T05:18:23.580Z,7.10
2022-10-18T05:20:51.147Z,7.13
2022-10-18T05:23:18.743Z,9.90
2022-10-18T05:25:46.288Z,8.00
2022-10-18T05:28:38.082Z,8.60
2022-10-18T05:31:03.197Z,8.63
2022-10-18T05:33:30.982Z,7.70
2022-10-18T05:35:58.807Z,7.50
2022-10-18T05:38:26.770Z,7.00
2022-10-18T05:40:54.396Z,7.93
2022-10-18T05:43:23.334Z,12.13
2022-10-18T05:45:51.392Z,7.10
2022-10-18T05:48:19.280Z,8.60
2022-10-18T05:50:46.822Z,10.73
2022-10-18T05:53:35.182Z,11.03
2022-10-18T05:56:02.374Z,9.90
2022-10-18T05:58:31.322Z,7.10
2022-10-18T06:00:59.893Z,7.00
2022-10-18T06:03:30.338Z,8.10
2022-10-18T06:06:00.186Z,8.10
2022-10-18T06:08:27.661Z,8.00
2022-10-18T06:10:55.090Z,10.80
2022-10-18T06:13:22.471Z,10.80
2022-10-18T06:15:51.339Z,5.97
2022-10-18T06:18:18.766Z,7.10
2022-10-18T06:20:46.270Z,7.33
2022-10-18T06:23:13.671Z,9.60
2022-10-18T06:25:41.067Z,10.80
2022-10-18T06:28:10.267Z,6.90
2022-10-18T06:30:39.614Z,6.27
2022-10-18T06:33:08.429Z,10.83
2022-10-18T06:35:35.836Z,9.87
2022-10-18T06:38:03.310Z,9.00
2022-10-18T06:40:37.659Z,14.40
2022-10-18T06:43:20.082Z,8.57
2022-10-18T06:45:48.291Z,11.67
2022-10-18T06:50:53.104Z,6.87
2022-10-18T06:53:20.498Z,7.93
2022-10-18T06:55:47.894Z,6.77
2022-10-18T06:58:15.339Z,6.63
2022-10-18T07:00:42.822Z,6.60
2022-10-18T07:03:10.226Z,8.17
2022-10-18T07:05:39.062Z,6.80
2022-10-18T07:08:06.594Z,9.97
2022-10-18T07:10:34.072Z,7.47
2022-10-18T07:13:19.956Z,10.37
2022-10-18T07:15:48.943Z,10.97
2022-10-18T07:18:16.315Z,10.33
2022-10-18T07:20:45.059Z,11.00
2022-10-18T07:23:12.484Z,6.90
2022-10-18T07:25:39.913Z,8.40
2022-10-18T07:28:07.298Z,8.73
2022-10-18T07:30:34.978Z,8.77
2022-10-18T07:33:02.459Z,11.27
2022-10-18T07:35:29.833Z,9.63
2022-10-18T07:37:58.684Z,6.33
2022-10-18T07:40:26.087Z,8.63
2022-10-18T07:42:53.495Z,7.80
2022-10-18T07:45:20.979Z,8.83
2022-10-18T07:47:48.387Z,7.17
2022-10-18T07:50:15.798Z,6.57
2022-10-18T07:52:43.181Z,9.63
2022-10-18T07:55:11.952Z,8.63
2022-10-18T07:57:39.381Z,9.63
2022-10-18T08:00:08.916Z,9.57
2022-10-18T08:02:36.458Z,7.43
2022-10-18T08:05:04.111Z,8.73
2022-10-18T08:07:33.239Z,5.73
2022-10-18T08:10:00.822Z,8.55
2022-10-18T08:12:29.600Z,8.03
2022-10-18T08:14:57.043Z,7.55
2022-10-18T08:17:24.576Z,7.38
2022-10-18T08:20:04.778Z,7.75
2022-10-18T08:22:39.454Z,5.65
2022-10-18T08:25:07.400Z,5.57
2022-10-18T08:27:36.215Z,8.43
2022-10-18T08:30:03.911Z,5.97
2022-10-18T08:32:31.575Z,6.22
2022-10-18T08:34:59.298Z,8.40
2022-10-18T08:37:27.164Z,5.60
2022-10-18T08:39:54.747Z,4.03
2022-10-18T08:42:29.818Z,8.40
2022-10-18T08:45:02.066Z,5.80
2022-10-18T08:47:34.986Z,8.05
2022-10-18T08:50:03.891Z,8.95
2022-10-18T08:52:33.460Z,5.35
2022-10-18T08:55:03.197Z,5.80
2022-10-18T08:57:31.801Z,5.47
2022-10-18T09:00:02.716Z,6.40
2022-10-18T09:02:39.521Z,6.30
2022-10-18T09:05:15.724Z,3.17
2022-10-18T09:08:09.520Z,6.45
2022-10-18T09:10:43.432Z,3.33
2022-10-18T09:13:29.648Z,10.55
2022-10-18T09:16:00.243Z,5.40
2022-10-18T09:18:34.129Z,5.32
2022-10-18T09:21:06.425Z,4.95
2022-10-18T09:23:40.604Z,4.72
2022-10-18T09:26:11.092Z,2.97
2022-10-18T09:28:42.922Z,5.93
2022-10-18T09:31:17.329Z,2.95
2022-10-18T09:33:49.375Z,3.00
2022-10-18T09:36:19.492Z,2.50
2022-10-18T09:38:48.370Z,4.20
2022-10-18T09:41:19.631Z,3.35
2022-10-18T09:43:50.359Z,3.55
2022-10-18T09:46:20.945Z,2.38
2022-10-18T09:48:50.539Z,3.47
2022-10-18T09:51:22.137Z,5.35
2022-10-18T09:53:59.810Z,4.95
2022-10-18T09:56:30.464Z,8.88
2022-10-18T09:58:57.965Z,4.32
2022-10-18T10:01:27.815Z,4.88
2022-10-18T10:03:55.385Z,3.20
2022-10-18T10:06:27.649Z,3.53
2022-10-18T10:08:56.719Z,3.20
2022-10-18T10:11:28.383Z,1.70
2022-10-18T10:13:58.285Z,5.88
2022-10-18T10:16:27.731Z,3.10
2022-10-18T10:18:55.386Z,3.58
2022-10-18T10:21:23.395Z,2.22
2022-10-18T10:23:53.909Z,5.40
2022-10-18T10:26:22.949Z,2.58
2022-10-18T10:28:50.470Z,2.15
2022-10-18T10:31:19.172Z,3.25
2022-10-18T10:33:48.805Z,3.75
2022-10-18T10:36:20.698Z,2.85
2022-10-18T10:39:03.182Z,2.55
2022-10-18T10:44:04.883Z,4.13
2022-10-18T10:46:36.011Z,5.00
2022-10-18T10:49:34.971Z,3.50
2022-10-18T10:52:08.129Z,8.05
2022-10-18T10:54:38.888Z,4.68
2022-10-18T10:57:11.198Z,4.72
2022-10-18T10:59:42.602Z,4.60
2022-10-18T11:02:20.759Z,4.68
2022-10-18T11:04:51.036Z,4.70
2022-10-18T11:07:22.843Z,5.65
2022-10-18T11:09:56.509Z,3.80
2022-10-18T11:12:27.612Z,3.83
2022-10-18T11:15:05.619Z,3.05
2022-10-18T11:17:35.515Z,2.22
2022-10-18T11:20:17.175Z,4.57
2022-10-18T11:22:47.812Z,3.60
2022-10-18T11:25:17.027Z,3.85
2022-10-18T11:27:47.892Z,4.50
2022-10-18T11:30:21.592Z,4.05
2022-10-18T11:32:52.256Z,4.50
2022-10-18T11:35:38.813Z,3.10
2022-10-18T11:38:11.144Z,3.63
2022-10-18T11:40:56.436Z,3.50
2022-10-18T11:43:34.426Z,5.25
2022-10-18T11:46:21.016Z,4.28
2022-10-18T11:48:58.110Z,3.63
2022-10-18T11:51:38.588Z,7.75
2022-10-18T11:54:30.647Z,5.03
2022-10-18T11:57:01.960Z,3.35
2022-10-18T11:59:32.256Z,4.85
2022-10-18T12:02:04.910Z,3.28
2022-10-18T12:04:35.047Z,7.88
2022-10-18T12:07:05.122Z,6.10
2022-10-18T12:09:35.906Z,4.28
2022-10-18T12:12:05.473Z,5.80
2022-10-18T12:14:35.538Z,5.45
2022-10-18T12:17:39.890Z,2.80
2022-10-18T12:19:55.848Z,5.57
2022-10-18T12:22:25.489Z,4.30
2022-10-18T12:24:54.370Z,4.85
2022-10-18T12:27:26.260Z,2.92
2022-10-18T12:29:59.218Z,5.55
2022-10-18T12:32:28.696Z,4.55
2022-10-18T12:34:59.182Z,5.55
2022-10-18T12:37:41.577Z,3.15
2022-10-18T12:40:18.507Z,3.45
2022-10-18T12:42:48.558Z,3.33
2022-10-18T12:45:21.701Z,3.58
2022-10-18T12:47:49.328Z,5.43
2022-10-18T12:50:27.709Z,4.88
2022-10-18T12:53:02.996Z,3.47
2022-10-18T12:55:32.872Z,5.25
2022-10-18T12:58:02.530Z,3.45
2022-10-18T13:00:48.936Z,3.15
2022-10-18T13:03:35.153Z,3.92
2022-10-18T13:06:06.455Z,5.22
2022-10-18T13:08:39.409Z,4.78
2022-10-18T13:11:24.862Z,6.03
2022-10-18T13:14:06.635Z,5.88
2022-10-18T13:16:38.197Z,3.22
2022-10-18T13:19:17.835Z,6.07
2022-10-18T13:21:48.679Z,4.30
2022-10-18T13:24:24.282Z,3.97
2022-10-18T13:27:17.239Z,2.58
2022-10-18T13:30:02.111Z,3.08
2022-10-18T13:32:33.152Z,5.47
2022-10-18T13:35:00.966Z,4.35
2022-10-18T13:37:30.061Z,5.63
2022-10-18T13:40:12.524Z,4.22
2022-10-18T13:42:40.121Z,3.53
2022-10-18T13:45:28.699Z,3.92
2022-10-18T13:47:57.671Z,4.00
2022-10-18T13:50:31.010Z,5.63
2022-10-18T13:53:05.470Z,5.07
2022-10-18T13:55:43.485Z,3.80
2022-10-18T13:58:16.553Z,4.97
2022-10-18T14:00:52.862Z,4.47
2022-10-18T14:04:02.712Z,3.78
2022-10-18T14:06:35.074Z,6.60
2022-10-18T14:09:13.846Z,4.70
2022-10-18T14:11:54.137Z,6.25
2022-10-18T14:14:26.413Z,8.23
2022-10-18T14:16:58.262Z,7.30
2022-10-18T14:19:30.243Z,6.95
2022-10-18T14:22:00.499Z,4.75
2022-10-18T14:24:28.431Z,4.95
2022-10-18T14:27:17.485Z,4.88
2022-10-18T14:29:45.151Z,6.22
2022-10-18T14:32:20.970Z,5.35
2022-10-18T14:34:48.543Z,6.32
2022-10-18T14:37:22.625Z,5.22
2022-10-18T14:39:50.360Z,4.72
2022-10-18T14:42:20.918Z,4.55
2022-10-18T14:44:53.006Z,4.90
2022-10-18T14:47:24.672Z,6.13
2022-10-18T14:49:54.349Z,6.05
2022-10-18T14:52:26.344Z,4.07
2022-10-18T14:54:55.758Z,4.05
2022-10-18T14:57:24.529Z,6.03
2022-10-18T14:59:55.666Z,4.18
2022-10-18T15:02:24.376Z,3.78
2022-10-18T15:04:59.215Z,5.47
2022-10-18T15:07:31.529Z,3.72
2022-10-18T15:10:00.497Z,3.03
2022-10-18T15:12:33.951Z,4.03
2022-10-18T15:15:14.914Z,5.00
2022-10-18T15:17:42.483Z,4.18
2022-10-18T15:20:20.382Z,4.10
2022-10-18T15:22:49.667Z,2.85
2022-10-18T15:25:18.339Z,2.88
2022-10-18T15:27:47.402Z,2.95
2022-10-18T15:30:20.421Z,3.22
2022-10-18T15:32:49.247Z,3.80
2022-10-18T15:35:22.150Z,5.55
2022-10-18T15:37:54.549Z,3.90
2022-10-18T15:40:38.309Z,6.80
2022-10-18T15:43:07.481Z,2.80
2022-10-18T15:45:36.895Z,2.75
2022-10-18T15:48:18.658Z,4.78
2022-10-18T15:50:47.576Z,5.43
2022-10-18T15:53:31.592Z,4.32
2022-10-18T15:55:59.529Z,5.53
2022-10-18T15:58:28.061Z,4.07
2022-10-18T16:00:57.533Z,3.20
2022-10-18T16:03:25.235Z,4.43
2022-10-18T16:05:56.944Z,3.35
2022-10-18T16:08:28.769Z,3.10
2022-10-18T16:10:56.313Z,2.78
2022-10-18T16:13:24.026Z,2.15
2022-10-18T16:15:51.673Z,4.40
2022-10-18T16:18:19.886Z,4.13
2022-10-18T16:20:48.031Z,3.78
2022-10-18T16:23:18.504Z,4.03
2022-10-18T16:25:48.047Z,2.67
2022-10-18T16:28:16.657Z,2.20
2022-10-18T16:30:45.003Z,4.57
2022-10-18T16:33:13.615Z,2.00
2022-10-18T16:35:43.329Z,2.42
2022-10-18T16:38:17.988Z,3.15
2022-10-18T16:40:47.171Z,5.57
2022-10-18T16:43:14.914Z,3.35
2022-10-18T16:45:42.548Z,2.70
2022-10-18T16:48:12.126Z,2.88
2022-10-18T16:50:39.629Z,3.10
2022-10-18T16:53:07.147Z,3.20
2022-10-18T16:55:34.742Z,3.30
2022-10-18T16:58:03.835Z,3.03
2022-10-18T17:00:31.504Z,4.97
2022-10-18T17:02:59.086Z,4.70
2022-10-18T17:05:26.703Z,3.45
2022-10-18T17:07:54.253Z,7.28
2022-10-18T17:10:24.210Z,3.67
2022-10-18T17:12:52.480Z,4.07
2022-10-18T17:15:21.602Z,4.93
2022-10-18T17:17:50.024Z,3.05
2022-10-18T17:20:19.813Z,6.75
2022-10-18T17:22:47.435Z,2.67
2022-10-18T17:25:15.300Z,5.90
2022-10-18T17:27:42.981Z,3.43
2022-10-18T17:30:11.488Z,4.05
2022-10-18T17:32:40.463Z,4.40
2022-10-18T17:35:08.099Z,3.90
2022-10-18T17:37:36.177Z,5.15
2022-10-18T17:40:04.120Z,5.40
2022-10-18T17:42:31.681Z,4.87
2022-10-18T17:44:59.233Z,4.67
2022-10-18T17:47:26.915Z,4.67
2022-10-18T17:49:56.028Z,4.70
2022-10-18T17:52:23.598Z,4.10
2022-10-18T17:54:51.253Z,5.77
2022-10-18T17:57:19.079Z,4.70
2022-10-18T17:59:48.177Z,6.00
2022-10-18T18:02:15.887Z,6.65
2022-10-18T18:04:43.908Z,5.93
2022-10-18T18:07:12.822Z,5.43
2022-10-18T18:09:40.426Z,4.85
2022-10-18T18:12:07.920Z,9.43
2022-10-18T18:14:35.484Z,5.30
2022-10-18T18:17:03.092Z,7.63
2022-10-18T18:19:31.297Z,5.83
2022-10-18T18:21:59.487Z,9.57
2022-10-18T18:24:29.199Z,4.32
2022-10-18T18:26:56.933Z,7.33
2022-10-18T18:29:25.495Z,4.80
2022-10-18T18:31:53.267Z,4.80
2022-10-18T18:34:22.215Z,5.17
2022-10-18T18:36:51.877Z,4.80
2022-10-18T18:39:21.223Z,7.90
2022-10-18T18:41:51.058Z,5.57
2022-10-18T18:44:19.428Z,7.30
2022-10-18T18:46:47.006Z,5.83
2022-10-18T18:49:15.191Z,5.50
2022-10-18T18:51:42.859Z,5.50
2022-10-18T18:54:11.320Z,9.63
2022-10-18T18:56:38.993Z,6.00
2022-10-18T18:59:08.214Z,6.77
2022-10-18T19:01:36.807Z,4.83
2022-10-18T19:04:05.326Z,4.97
2022-10-18T19:06:33.992Z,5.93
2022-10-18T19:09:04.043Z,5.27
2022-10-18T19:11:32.656Z,6.90
2022-10-18T19:14:00.656Z,6.43
2022-10-18T19:16:30.559Z,5.63
2022-10-18T19:18:59.871Z,5.40
2022-10-18T19:21:28.577Z,6.17
2022-10-18T19:23:57.180Z,6.80
2022-10-18T19:26:29.241Z,5.40
2022-10-18T19:28:56.909Z,6.53
2022-10-18T19:31:24.536Z,6.33
2022-10-18T19:33:59.314Z,5.60
2022-10-18T19:36:29.773Z,6.87
2022-10-18T19:38:57.544Z,5.03
2022-10-18T19:43:53.018Z,5.80
2022-10-18T19:46:20.632Z,6.70
2022-10-18T19:48:48.230Z,6.00
2022-10-18T19:51:20.952Z,5.70
2022-10-18T19:53:51.785Z,5.47
2022-10-18T19:56:20.291Z,7.43
2022-10-18T19:58:48.213Z,7.40
2022-10-18T20:01:16.558Z,5.50
2022-10-18T20:03:44.584Z,5.63
2022-10-18T20:06:12.110Z,5.90
2022-10-18T20:11:10.776Z,8.57
2022-10-18T20:13:38.591Z,6.73
2022-10-18T20:16:06.897Z,5.77
2022-10-18T20:18:34.697Z,5.43
2022-10-18T20:21:05.260Z,5.87
2022-10-18T20:23:33.425Z,6.77
2022-10-18T20:26:03.278Z,6.60
2022-10-18T20:28:30.872Z,6.77
2022-10-18T20:31:05.253Z,8.03
2022-10-18T20:33:33.334Z,6.20
2022-10-18T20:36:05.034Z,7.40
2022-10-18T20:38:33.488Z,7.33
2022-10-18T20:41:07.300Z,6.97
2022-10-18T20:43:35.267Z,6.43
2022-10-18T20:46:03.389Z,5.47
2022-10-18T20:48:31.382Z,5.20
2022-10-18T20:50:59.287Z,6.17
2022-10-18T20:53:27.057Z,4.90
2022-10-18T20:56:02.731Z,4.30
2022-10-18T20:58:32.202Z,5.00
2022-10-18T21:01:06.760Z,6.10
2022-10-18T21:03:34.586Z,4.57
2022-10-18T21:06:02.622Z,4.70
2022-10-18T21:08:30.460Z,5.07
2022-10-18T21:11:01.263Z,5.17
2022-10-18T21:13:28.792Z,4.33
2022-10-18T21:15:58.273Z,5.30
2022-10-18T21:18:26.443Z,5.53
2022-10-18T21:20:54.088Z,5.10
2022-10-18T21:23:22.285Z,4.80
2022-10-18T21:25:50.137Z,5.37
2022-10-18T21:28:18.042Z,4.43
2022-10-18T21:30:45.586Z,4.97
2022-10-18T21:33:14.516Z,4.97
2022-10-18T21:35:42.142Z,7.87
2022-10-18T21:38:09.614Z,4.40
2022-10-18T21:40:39.537Z,5.43
2022-10-18T21:43:07.049Z,5.03
2022-10-18T21:45:34.672Z,5.10
2022-10-18T21:48:06.130Z,5.47
2022-10-18T21:50:36.161Z,6.83
2022-10-18T21:53:06.435Z,5.20
2022-10-18T21:55:36.961Z,4.57
2022-10-18T21:58:04.885Z,5.27
2022-10-18T22:00:32.662Z,6.97
2022-10-18T22:03:07.219Z,7.47
2022-10-18T22:05:37.364Z,4.87
2022-10-18T22:08:05.180Z,5.10
2022-10-18T22:10:32.766Z,4.70
2022-10-18T22:13:00.389Z,5.27
2022-10-18T22:15:28.015Z,5.53
2022-10-18T22:17:55.598Z,5.53
2022-10-18T22:20:23.073Z,5.33
2022-10-18T22:22:53.977Z,6.27
2022-10-18T22:25:21.517Z,5.30
2022-10-18T22:27:48.985Z,6.20
2022-10-18T22:30:16.531Z,5.87
2022-10-18T22:32:44.048Z,7.30
2022-10-18T22:35:11.543Z,8.87
2022-10-18T22:37:39.098Z,7.93
2022-10-18T22:40:09.135Z,9.83
2022-10-18T22:42:36.680Z,9.57
2022-10-18T22:45:04.564Z,36.50
2022-10-18T22:47:32.277Z,44.43
2022-10-18T22:49:59.924Z,30.27
2022-10-18T22:52:27.381Z,25.43
2022-10-18T22:54:54.861Z,27.70
2022-10-18T22:57:23.759Z,31.57
2022-10-18T22:59:51.197Z,17.80
2022-10-18T23:02:18.641Z,14.63
2022-10-18T23:04:46.139Z,28.53
2022-10-18T23:07:13.760Z,22.97
2022-10-18T23:12:14.013Z,15.47
2022-10-18T23:14:43.849Z,21.67
2022-10-18T23:17:11.332Z,19.43
2022-10-18T23:19:38.822Z,21.03
2022-10-18T23:22:06.360Z,11.93
2022-10-18T23:24:33.883Z,13.37
2022-10-18T23:27:01.475Z,14.43
2022-10-18T23:29:29.293Z,12.70
2022-10-18T23:31:58.706Z,13.93
2022-10-18T23:34:26.300Z,14.53
2022-10-18T23:36:53.721Z,11.97
2022-10-18T23:39:21.130Z,12.33
2022-10-18T23:41:48.581Z,11.77
2022-10-18T23:44:16.091Z,9.17
2022-10-18T23:46:43.581Z,8.77
2022-10-18T23:49:12.596Z,8.07
2022-10-18T23:51:40.036Z,10.87
2022-10-18T23:54:07.445Z,9.53
2022-10-18T23:56:34.877Z,9.00
2022-10-18T23:59:02.544Z,8.20
